Abraham González International Airport
MMCS : now visible

Airfield :











YOU CAN JOIN US ON...

 
LOGIN :

Register | Disclaimer

   EN    FR    IT 

 









Legend :    VFR   Marginal VFR   IFR   Intensive IFR   Very Intensive IFR
Visi :
Ceiling :
>= 8 km
>= 3000ft
5 to 8 km
1000 to 3000 ft
1500m to 5 km
500 to 1000 ft
800 to 1500m
200 to 500 ft
< 800m
< 200 ft
Symbols :   Thunderstorms  Fog  Heavy snow  Heavy precipitations  Wind > 20 kt






- Airport Elevation : 3904 ft
- IATA code : CJS


MMCS - Abraham González International

CURRENT METAR :
  • 040240Z 00000KT 10SM OVC140 21/M04 A2988 RMK SLP038 57002 959 8/01/ BINOVC CI

EXPIRED METARs :
  • 040144Z 00000KT 10SM BKN140 BKN200 22/M04 A2988 RMK 8/012 ISOL SC
  • 040040Z 25008KT 10SM BKN140 BKN200 23/M05 A2988 RMK 8/012

TAF TAF MMCS
Valid from the 03 at 18:00 until the 04 at 18:00 UTC


031701Z 0318/0418 23008KT P6SM SCT100 BKN240
FM040800 20005KT P6SM BKN240



MET'MAP, your aeronautical weather chart ! - Copyright ORBIFLY December 2007 - Disclaimer

ORBIFLY MET'MAP TEAM :

Programming & Development : Alexandra Zaïnal
Concept & original design : Baudouin d'Aumeries
Assistance for programming : Marc-Olivier Méhu
Technical & hardware support : Manuel Goepfert

Contact : metmap@orbifly.com




SOURCES & CREDITS :

   NOAA       Earth
Advisory